<?xml version="1.0" encoding="UTF-8"?><gpx creator="Wikiloc - http://www.wikiloc.com" version="1.1" xmlns="http://www.topografix.com/GPX/1/1" xmlns:xsi="http://www.w3.org/2001/XMLSchema-instance" xsi:schemaLocation="http://www.topografix.com/GPX/1/1 http://www.topografix.com/GPX/1/1/gpx.xsd"><wpt lat="40.034641" lon="-6.718220"><ele>251.0</ele><time>2015-09-25T21:44:15Z</time><name>ARROYO DE LA TINAJA</name><cmt></cmt><desc></desc></wpt><wpt lat="40.015485" lon="-6.732054"><ele>263.0</ele><time>2015-09-25T21:44:15Z</time><name>ARROYO DEL FRESNITO</name><cmt></cmt><desc></desc></wpt><wpt lat="40.008345" lon="-6.721101"><ele>268.0</ele><time>2015-09-25T21:44:15Z</time><name>CASA DE MALLADAS</name><cmt></cmt><desc></desc></wpt><wpt lat="40.007680" lon="-6.719170"><ele>267.0</ele><time>2015-09-25T21:44:15Z</time><name>ERMITA DE SAN JULIAN</name><cmt></cmt><desc></desc></wpt><wpt lat="40.015029" lon="-6.733579"><ele>271.0</ele><time>2015-09-25T21:44:15Z</time><name>PASADERA</name><cmt></cmt><desc></desc></wpt><wpt lat="40.041134" lon="-6.717958"><ele>0.0</ele><time>2015-09-25T21:44:15Z</time><name>VEGAVIANA</name><cmt></cmt><desc></desc></wpt><trk><name>SL-CC 212 Cañada Real de Vegaviana (Vegaviana) </name><cmt></cmt><desc></desc><trkseg><trkpt lat="40.042131" lon="-6.713525"><ele>254.0</ele><time>2016-07-09T19:57:39Z</time></trkpt><trkpt lat="40.041997" lon="-6.713695"><ele>254.0</ele><time>2016-07-09T19:58:19Z</time></trkpt><trkpt lat="40.041982" lon="-6.713697"><ele>254.0</ele><time>2016-07-09T19:58:59Z</time></trkpt><trkpt lat="40.041916" lon="-6.713687"><ele>254.0</ele><time>2016-07-09T19:59:39Z</time></trkpt><trkpt lat="40.041803" lon="-6.713737"><ele>253.0</ele><time>2016-07-09T20:00:19Z</time></trkpt><trkpt lat="40.041801" lon="-6.713784"><ele>253.0</ele><time>2016-07-09T20:00:59Z</time></trkpt><trkpt lat="40.041628" lon="-6.713834"><ele>253.0</ele><time>2016-07-09T20:01:39Z</time></trkpt><trkpt lat="40.041569" lon="-6.713851"><ele>253.0</ele><time>2016-07-09T20:02:19Z</time></trkpt><trkpt lat="40.041460" lon="-6.713932"><ele>253.0</ele><time>2016-07-09T20:02:59Z</time></trkpt><trkpt lat="40.041438" lon="-6.714074"><ele>253.0</ele><time>2016-07-09T20:03:39Z</time></trkpt><trkpt lat="40.041410" lon="-6.714095"><ele>253.0</ele><time>2016-07-09T20:04:19Z</time></trkpt><trkpt lat="40.041349" lon="-6.714073"><ele>253.0</ele><time>2016-07-09T20:04:59Z</time></trkpt><trkpt lat="40.041220" lon="-6.714150"><ele>253.0</ele><time>2016-07-09T20:05:39Z</time></trkpt><trkpt lat="40.040954" lon="-6.714309"><ele>254.0</ele><time>2016-07-09T20:06:19Z</time></trkpt><trkpt lat="40.040633" lon="-6.714442"><ele>255.0</ele><time>2016-07-09T20:06:59Z</time></trkpt><trkpt lat="40.040456" lon="-6.714581"><ele>255.0</ele><time>2016-07-09T20:07:39Z</time></trkpt><trkpt lat="40.040427" lon="-6.714593"><ele>255.0</ele><time>2016-07-09T20:08:19Z</time></trkpt><trkpt lat="40.040129" lon="-6.714807"><ele>254.0</ele><time>2016-07-09T20:08:59Z</time></trkpt><trkpt lat="40.039908" lon="-6.714931"><ele>254.0</ele><time>2016-07-09T20:09:39Z</time></trkpt><trkpt lat="40.039846" lon="-6.714996"><ele>254.0</ele><time>2016-07-09T20:10:19Z</time></trkpt><trkpt lat="40.039631" lon="-6.715056"><ele>254.0</ele><time>2016-07-09T20:10:59Z</time></trkpt><trkpt lat="40.039600" lon="-6.715066"><ele>254.0</ele><time>2016-07-09T20:11:39Z</time></trkpt><trkpt lat="40.039119" lon="-6.715416"><ele>253.0</ele><time>2016-07-09T20:12:19Z</time></trkpt><trkpt lat="40.038880" lon="-6.715597"><ele>254.0</ele><time>2016-07-09T20:12:59Z</time></trkpt><trkpt lat="40.038607" lon="-6.715835"><ele>253.0</ele><time>2016-07-09T20:13:39Z</time></trkpt><trkpt lat="40.038369" lon="-6.716043"><ele>253.0</ele><time>2016-07-09T20:14:19Z</time></trkpt><trkpt lat="40.038084" lon="-6.716236"><ele>252.0</ele><time>2016-07-09T20:14:59Z</time></trkpt><trkpt lat="40.037828" lon="-6.716332"><ele>252.0</ele><time>2016-07-09T20:15:39Z</time></trkpt><trkpt lat="40.037736" lon="-6.716358"><ele>252.0</ele><time>2016-07-09T20:16:19Z</time></trkpt><trkpt lat="40.037673" lon="-6.716370"><ele>252.0</ele><time>2016-07-09T20:16:59Z</time></trkpt><trkpt lat="40.037427" lon="-6.716524"><ele>251.0</ele><time>2016-07-09T20:17:39Z</time></trkpt><trkpt lat="40.037130" lon="-6.716735"><ele>252.0</ele><time>2016-07-09T20:18:19Z</time></trkpt><trkpt lat="40.036795" lon="-6.716873"><ele>252.0</ele><time>2016-07-09T20:18:59Z</time></trkpt><trkpt lat="40.036503" lon="-6.716990"><ele>252.0</ele><time>2016-07-09T20:19:39Z</time></trkpt><trkpt lat="40.036237" lon="-6.717099"><ele>252.0</ele><time>2016-07-09T20:20:19Z</time></trkpt><trkpt lat="40.035767" lon="-6.717239"><ele>251.0</ele><time>2016-07-09T20:20:59Z</time></trkpt><trkpt lat="40.035315" lon="-6.717347"><ele>251.0</ele><time>2016-07-09T20:21:39Z</time></trkpt><trkpt lat="40.034922" lon="-6.717355"><ele>251.0</ele><time>2016-07-09T20:22:19Z</time></trkpt><trkpt lat="40.034708" lon="-6.717545"><ele>251.0</ele><time>2016-07-09T20:22:59Z</time></trkpt><trkpt lat="40.034663" lon="-6.717589"><ele>251.0</ele><time>2016-07-09T20:23:39Z</time></trkpt><trkpt lat="40.034561" lon="-6.717746"><ele>251.0</ele><time>2016-07-09T20:24:19Z</time></trkpt><trkpt lat="40.034482" lon="-6.717865"><ele>251.0</ele><time>2016-07-09T20:24:59Z</time></trkpt><trkpt lat="40.034424" lon="-6.717795"><ele>251.0</ele><time>2016-07-09T20:25:39Z</time></trkpt><trkpt lat="40.034342" lon="-6.717746"><ele>251.0</ele><time>2016-07-09T20:26:19Z</time></trkpt><trkpt lat="40.034237" lon="-6.717695"><ele>251.0</ele><time>2016-07-09T20:26:59Z</time></trkpt><trkpt lat="40.034221" lon="-6.717606"><ele>251.0</ele><time>2016-07-09T20:27:39Z</time></trkpt><trkpt lat="40.034221" lon="-6.717447"><ele>251.0</ele><time>2016-07-09T20:28:19Z</time></trkpt><trkpt lat="40.034146" lon="-6.717394"><ele>251.0</ele><time>2016-07-09T20:28:59Z</time></trkpt><trkpt lat="40.033858" lon="-6.717542"><ele>250.0</ele><time>2016-07-09T20:29:39Z</time></trkpt><trkpt lat="40.033687" lon="-6.717674"><ele>248.0</ele><time>2016-07-09T20:30:19Z</time></trkpt><trkpt lat="40.033661" lon="-6.717742"><ele>248.0</ele><time>2016-07-09T20:30:59Z</time></trkpt><trkpt lat="40.033663" lon="-6.717758"><ele>248.0</ele><time>2016-07-09T20:31:39Z</time></trkpt><trkpt lat="40.033667" lon="-6.717773"><ele>248.0</ele><time>2016-07-09T20:32:19Z</time></trkpt><trkpt lat="40.033673" lon="-6.717792"><ele>248.0</ele><time>2016-07-09T20:32:59Z</time></trkpt><trkpt lat="40.033680" lon="-6.717812"><ele>248.0</ele><time>2016-07-09T20:33:39Z</time></trkpt><trkpt lat="40.033684" lon="-6.717831"><ele>248.0</ele><time>2016-07-09T20:34:19Z</time></trkpt><trkpt lat="40.033689" lon="-6.717864"><ele>248.0</ele><time>2016-07-09T20:34:59Z</time></trkpt><trkpt lat="40.033794" lon="-6.718117"><ele>249.0</ele><time>2016-07-09T20:35:39Z</time></trkpt><trkpt lat="40.033810" lon="-6.718286"><ele>249.0</ele><time>2016-07-09T20:36:19Z</time></trkpt><trkpt lat="40.033803" lon="-6.718405"><ele>249.0</ele><time>2016-07-09T20:36:59Z</time></trkpt><trkpt lat="40.033794" lon="-6.718434"><ele>249.0</ele><time>2016-07-09T20:37:39Z</time></trkpt><trkpt lat="40.033640" lon="-6.718425"><ele>248.0</ele><time>2016-07-09T20:38:19Z</time></trkpt><trkpt lat="40.033614" lon="-6.718418"><ele>248.0</ele><time>2016-07-09T20:38:59Z</time></trkpt><trkpt lat="40.033469" lon="-6.718401"><ele>246.0</ele><time>2016-07-09T20:39:39Z</time></trkpt><trkpt lat="40.033114" lon="-6.718257"><ele>245.0</ele><time>2016-07-09T20:40:19Z</time></trkpt><trkpt lat="40.032968" lon="-6.718199"><ele>245.0</ele><time>2016-07-09T20:40:59Z</time></trkpt><trkpt lat="40.032880" lon="-6.718208"><ele>245.0</ele><time>2016-07-09T20:41:39Z</time></trkpt><trkpt lat="40.031925" lon="-6.719064"><ele>249.0</ele><time>2016-07-09T20:42:19Z</time></trkpt><trkpt lat="40.031704" lon="-6.719277"><ele>247.0</ele><time>2016-07-09T20:42:59Z</time></trkpt><trkpt lat="40.031531" lon="-6.719461"><ele>248.0</ele><time>2016-07-09T20:43:39Z</time></trkpt><trkpt lat="40.031220" lon="-6.719572"><ele>245.0</ele><time>2016-07-09T20:44:19Z</time></trkpt><trkpt lat="40.030916" lon="-6.719638"><ele>245.0</ele><time>2016-07-09T20:44:59Z</time></trkpt><trkpt lat="40.030571" lon="-6.719800"><ele>244.0</ele><time>2016-07-09T20:45:39Z</time></trkpt><trkpt lat="40.030361" lon="-6.719854"><ele>244.0</ele><time>2016-07-09T20:46:19Z</time></trkpt><trkpt lat="40.030372" lon="-6.719851"><ele>244.0</ele><time>2016-07-09T20:46:59Z</time></trkpt><trkpt lat="40.030421" lon="-6.719842"><ele>244.0</ele><time>2016-07-09T20:47:39Z</time></trkpt><trkpt lat="40.030112" lon="-6.719916"><ele>244.0</ele><time>2016-07-09T20:48:19Z</time></trkpt><trkpt lat="40.029828" lon="-6.720074"><ele>244.0</ele><time>2016-07-09T20:48:59Z</time></trkpt><trkpt lat="40.029525" lon="-6.720322"><ele>245.0</ele><time>2016-07-09T20:49:39Z</time></trkpt><trkpt lat="40.029187" lon="-6.720435"><ele>247.0</ele><time>2016-07-09T20:50:19Z</time></trkpt><trkpt lat="40.028867" lon="-6.720774"><ele>248.0</ele><time>2016-07-09T20:50:59Z</time></trkpt><trkpt lat="40.028481" lon="-6.720899"><ele>247.0</ele><time>2016-07-09T20:51:39Z</time></trkpt><trkpt lat="40.028122" lon="-6.721008"><ele>246.0</ele><time>2016-07-09T20:52:19Z</time></trkpt><trkpt lat="40.027678" lon="-6.721219"><ele>246.0</ele><time>2016-07-09T20:52:59Z</time></trkpt><trkpt lat="40.027453" lon="-6.721389"><ele>247.0</ele><time>2016-07-09T20:53:39Z</time></trkpt><trkpt lat="40.027147" lon="-6.721641"><ele>247.0</ele><time>2016-07-09T20:54:19Z</time></trkpt><trkpt lat="40.027021" lon="-6.721675"><ele>246.0</ele><time>2016-07-09T20:54:59Z</time></trkpt><trkpt lat="40.027008" lon="-6.721694"><ele>246.0</ele><time>2016-07-09T20:55:39Z</time></trkpt><trkpt lat="40.026788" lon="-6.721897"><ele>245.0</ele><time>2016-07-09T20:56:19Z</time></trkpt><trkpt lat="40.026495" lon="-6.722053"><ele>245.0</ele><time>2016-07-09T20:56:59Z</time></trkpt><trkpt lat="40.026116" lon="-6.722307"><ele>247.0</ele><time>2016-07-09T20:57:39Z</time></trkpt><trkpt lat="40.025784" lon="-6.722512"><ele>247.0</ele><time>2016-07-09T20:58:19Z</time></trkpt><trkpt lat="40.025543" lon="-6.722635"><ele>247.0</ele><time>2016-07-09T20:58:59Z</time></trkpt><trkpt lat="40.025399" lon="-6.722717"><ele>248.0</ele><time>2016-07-09T20:59:39Z</time></trkpt><trkpt lat="40.024950" lon="-6.723102"><ele>249.0</ele><time>2016-07-09T21:00:19Z</time></trkpt><trkpt lat="40.024637" lon="-6.723378"><ele>251.0</ele><time>2016-07-09T21:00:59Z</time></trkpt><trkpt lat="40.024373" lon="-6.723791"><ele>254.0</ele><time>2016-07-09T21:01:39Z</time></trkpt><trkpt lat="40.024117" lon="-6.724155"><ele>255.0</ele><time>2016-07-09T21:02:19Z</time></trkpt><trkpt lat="40.023889" lon="-6.724503"><ele>258.0</ele><time>2016-07-09T21:02:59Z</time></trkpt><trkpt lat="40.023705" lon="-6.724875"><ele>263.0</ele><time>2016-07-09T21:03:39Z</time></trkpt><trkpt lat="40.023601" lon="-6.725172"><ele>264.0</ele><time>2016-07-09T21:04:19Z</time></trkpt><trkpt lat="40.023461" lon="-6.725493"><ele>268.0</ele><time>2016-07-09T21:04:59Z</time></trkpt><trkpt lat="40.023237" lon="-6.725863"><ele>269.0</ele><time>2016-07-09T21:05:39Z</time></trkpt><trkpt lat="40.023050" lon="-6.726179"><ele>270.0</ele><time>2016-07-09T21:06:19Z</time></trkpt><trkpt lat="40.022976" lon="-6.726303"><ele>270.0</ele><time>2016-07-09T21:06:59Z</time></trkpt><trkpt lat="40.022948" lon="-6.726333"><ele>270.0</ele><time>2016-07-09T21:07:39Z</time></trkpt><trkpt lat="40.022906" lon="-6.726412"><ele>269.0</ele><time>2016-07-09T21:08:19Z</time></trkpt><trkpt lat="40.022816" lon="-6.726546"><ele>269.0</ele><time>2016-07-09T21:08:59Z</time></trkpt><trkpt lat="40.022809" lon="-6.726557"><ele>269.0</ele><time>2016-07-09T21:09:39Z</time></trkpt><trkpt lat="40.022804" lon="-6.726571"><ele>269.0</ele><time>2016-07-09T21:10:19Z</time></trkpt><trkpt lat="40.022800" lon="-6.726586"><ele>269.0</ele><time>2016-07-09T21:10:59Z</time></trkpt><trkpt lat="40.022797" lon="-6.726602"><ele>269.0</ele><time>2016-07-09T21:11:39Z</time></trkpt><trkpt lat="40.022790" lon="-6.726614"><ele>269.0</ele><time>2016-07-09T21:12:19Z</time></trkpt><trkpt lat="40.022775" lon="-6.726627"><ele>269.0</ele><time>2016-07-09T21:12:59Z</time></trkpt><trkpt lat="40.022754" lon="-6.726646"><ele>269.0</ele><time>2016-07-09T21:13:39Z</time></trkpt><trkpt lat="40.022736" lon="-6.726668"><ele>269.0</ele><time>2016-07-09T21:14:19Z</time></trkpt><trkpt lat="40.022722" lon="-6.726694"><ele>269.0</ele><time>2016-07-09T21:14:59Z</time></trkpt><trkpt lat="40.022711" lon="-6.726716"><ele>269.0</ele><time>2016-07-09T21:15:39Z</time></trkpt><trkpt lat="40.022701" lon="-6.726733"><ele>269.0</ele><time>2016-07-09T21:16:19Z</time></trkpt><trkpt lat="40.022677" lon="-6.726785"><ele>269.0</ele><time>2016-07-09T21:16:59Z</time></trkpt><trkpt lat="40.022650" lon="-6.726792"><ele>269.0</ele><time>2016-07-09T21:17:39Z</time></trkpt><trkpt lat="40.022632" lon="-6.726809"><ele>268.0</ele><time>2016-07-09T21:18:19Z</time></trkpt><trkpt lat="40.022418" lon="-6.727062"><ele>268.0</ele><time>2016-07-09T21:18:59Z</time></trkpt><trkpt lat="40.022151" lon="-6.727361"><ele>267.0</ele><time>2016-07-09T21:19:39Z</time></trkpt><trkpt lat="40.021738" lon="-6.727628"><ele>265.0</ele><time>2016-07-09T21:20:19Z</time></trkpt><trkpt lat="40.021314" lon="-6.727956"><ele>264.0</ele><time>2016-07-09T21:20:59Z</time></trkpt><trkpt lat="40.020937" lon="-6.728301"><ele>262.0</ele><time>2016-07-09T21:21:39Z</time></trkpt><trkpt lat="40.020627" lon="-6.728742"><ele>262.0</ele><time>2016-07-09T21:22:19Z</time></trkpt><trkpt lat="40.020272" lon="-6.729167"><ele>261.0</ele><time>2016-07-09T21:22:59Z</time></trkpt><trkpt lat="40.019919" lon="-6.729504"><ele>261.0</ele><time>2016-07-09T21:23:39Z</time></trkpt><trkpt lat="40.019597" lon="-6.729777"><ele>261.0</ele><time>2016-07-09T21:24:19Z</time></trkpt><trkpt lat="40.019264" lon="-6.729920"><ele>260.0</ele><time>2016-07-09T21:24:59Z</time></trkpt><trkpt lat="40.019084" lon="-6.730343"><ele>260.0</ele><time>2016-07-09T21:25:39Z</time></trkpt><trkpt lat="40.018814" lon="-6.730524"><ele>260.0</ele><time>2016-07-09T21:26:19Z</time></trkpt><trkpt lat="40.018489" lon="-6.730763"><ele>261.0</ele><time>2016-07-09T21:26:59Z</time></trkpt><trkpt lat="40.018125" lon="-6.731063"><ele>260.0</ele><time>2016-07-09T21:27:39Z</time></trkpt><trkpt lat="40.017840" lon="-6.731332"><ele>260.0</ele><time>2016-07-09T21:28:19Z</time></trkpt><trkpt lat="40.017610" lon="-6.731472"><ele>260.0</ele><time>2016-07-09T21:28:59Z</time></trkpt><trkpt lat="40.017272" lon="-6.731665"><ele>260.0</ele><time>2016-07-09T21:29:39Z</time></trkpt><trkpt lat="40.016802" lon="-6.732010"><ele>258.0</ele><time>2016-07-09T21:30:19Z</time></trkpt><trkpt lat="40.016766" lon="-6.732054"><ele>258.0</ele><time>2016-07-09T21:30:59Z</time></trkpt><trkpt lat="40.016733" lon="-6.732095"><ele>259.0</ele><time>2016-07-09T21:31:39Z</time></trkpt><trkpt lat="40.016698" lon="-6.732130"><ele>259.0</ele><time>2016-07-09T21:32:19Z</time></trkpt><trkpt lat="40.016663" lon="-6.732162"><ele>259.0</ele><time>2016-07-09T21:32:59Z</time></trkpt><trkpt lat="40.016222" lon="-6.732574"><ele>257.0</ele><time>2016-07-09T21:33:39Z</time></trkpt><trkpt lat="40.015896" lon="-6.732819"><ele>256.0</ele><time>2016-07-09T21:34:19Z</time></trkpt><trkpt lat="40.015562" lon="-6.733108"><ele>255.0</ele><time>2016-07-09T21:34:59Z</time></trkpt><trkpt lat="40.015329" lon="-6.733334"><ele>255.0</ele><time>2016-07-09T21:35:39Z</time></trkpt><trkpt lat="40.015250" lon="-6.733446"><ele>255.0</ele><time>2016-07-09T21:36:19Z</time></trkpt><trkpt lat="40.015229" lon="-6.733447"><ele>255.0</ele><time>2016-07-09T21:36:59Z</time></trkpt><trkpt lat="40.015190" lon="-6.733473"><ele>254.0</ele><time>2016-07-09T21:37:39Z</time></trkpt><trkpt lat="40.015092" lon="-6.733558"><ele>254.0</ele><time>2016-07-09T21:38:19Z</time></trkpt><trkpt lat="40.014990" lon="-6.733558"><ele>254.0</ele><time>2016-07-09T21:38:59Z</time></trkpt><trkpt lat="40.014930" lon="-6.733559"><ele>254.0</ele><time>2016-07-09T21:39:39Z</time></trkpt><trkpt lat="40.014734" lon="-6.733619"><ele>256.0</ele><time>2016-07-09T21:40:19Z</time></trkpt><trkpt lat="40.014480" lon="-6.733888"><ele>257.0</ele><time>2016-07-09T21:40:59Z</time></trkpt><trkpt lat="40.014313" lon="-6.734131"><ele>256.0</ele><time>2016-07-09T21:41:39Z</time></trkpt><trkpt lat="40.014155" lon="-6.734444"><ele>258.0</ele><time>2016-07-09T21:42:19Z</time></trkpt><trkpt lat="40.013928" lon="-6.734665"><ele>259.0</ele><time>2016-07-09T21:42:59Z</time></trkpt><trkpt lat="40.013675" lon="-6.734790"><ele>261.0</ele><time>2016-07-09T21:43:39Z</time></trkpt><trkpt lat="40.013226" lon="-6.734815"><ele>262.0</ele><time>2016-07-09T21:44:19Z</time></trkpt><trkpt lat="40.012775" lon="-6.734905"><ele>263.0</ele><time>2016-07-09T21:44:59Z</time></trkpt><trkpt lat="40.012551" lon="-6.734939"><ele>262.0</ele><time>2016-07-09T21:45:39Z</time></trkpt><trkpt lat="40.012395" lon="-6.734982"><ele>262.0</ele><time>2016-07-09T21:46:19Z</time></trkpt><trkpt lat="40.012047" lon="-6.735076"><ele>261.0</ele><time>2016-07-09T21:46:59Z</time></trkpt><trkpt lat="40.011539" lon="-6.735211"><ele>261.0</ele><time>2016-07-09T21:47:39Z</time></trkpt><trkpt lat="40.011147" lon="-6.735549"><ele>260.0</ele><time>2016-07-09T21:48:19Z</time></trkpt><trkpt lat="40.010939" lon="-6.735735"><ele>260.0</ele><time>2016-07-09T21:48:59Z</time></trkpt><trkpt lat="40.010691" lon="-6.736041"><ele>261.0</ele><time>2016-07-09T21:49:39Z</time></trkpt><trkpt lat="40.010223" lon="-6.736465"><ele>261.0</ele><time>2016-07-09T21:50:19Z</time></trkpt><trkpt lat="40.010060" lon="-6.736579"><ele>262.0</ele><time>2016-07-09T21:50:59Z</time></trkpt><trkpt lat="40.009813" lon="-6.736748"><ele>262.0</ele><time>2016-07-09T21:51:39Z</time></trkpt><trkpt lat="40.009757" lon="-6.736781"><ele>262.0</ele><time>2016-07-09T21:52:19Z</time></trkpt><trkpt lat="40.009741" lon="-6.736787"><ele>262.0</ele><time>2016-07-09T21:52:59Z</time></trkpt><trkpt lat="40.009722" lon="-6.736800"><ele>262.0</ele><time>2016-07-09T21:53:39Z</time></trkpt><trkpt lat="40.009702" lon="-6.736814"><ele>262.0</ele><time>2016-07-09T21:54:19Z</time></trkpt><trkpt lat="40.009641" lon="-6.736860"><ele>262.0</ele><time>2016-07-09T21:54:59Z</time></trkpt><trkpt lat="40.009461" lon="-6.736473"><ele>261.0</ele><time>2016-07-09T21:55:39Z</time></trkpt><trkpt lat="40.009439" lon="-6.736415"><ele>261.0</ele><time>2016-07-09T21:56:19Z</time></trkpt><trkpt lat="40.009380" lon="-6.736277"><ele>261.0</ele><time>2016-07-09T21:56:59Z</time></trkpt><trkpt lat="40.009260" lon="-6.735847"><ele>261.0</ele><time>2016-07-09T21:57:39Z</time></trkpt><trkpt lat="40.009245" lon="-6.735769"><ele>261.0</ele><time>2016-07-09T21:58:19Z</time></trkpt><trkpt lat="40.009242" lon="-6.735671"><ele>261.0</ele><time>2016-07-09T21:58:59Z</time></trkpt><trkpt lat="40.009243" lon="-6.735641"><ele>261.0</ele><time>2016-07-09T21:59:39Z</time></trkpt><trkpt lat="40.009243" lon="-6.735623"><ele>261.0</ele><time>2016-07-09T22:00:19Z</time></trkpt><trkpt lat="40.009245" lon="-6.735598"><ele>261.0</ele><time>2016-07-09T22:00:59Z</time></trkpt><trkpt lat="40.009256" lon="-6.735254"><ele>261.0</ele><time>2016-07-09T22:01:39Z</time></trkpt><trkpt lat="40.009254" lon="-6.735225"><ele>261.0</ele><time>2016-07-09T22:02:19Z</time></trkpt><trkpt lat="40.009251" lon="-6.735205"><ele>261.0</ele><time>2016-07-09T22:02:59Z</time></trkpt><trkpt lat="40.009247" lon="-6.735180"><ele>261.0</ele><time>2016-07-09T22:03:39Z</time></trkpt><trkpt lat="40.009244" lon="-6.735148"><ele>261.0</ele><time>2016-07-09T22:04:19Z</time></trkpt><trkpt lat="40.009241" lon="-6.735111"><ele>262.0</ele><time>2016-07-09T22:04:59Z</time></trkpt><trkpt lat="40.009237" lon="-6.735070"><ele>262.0</ele><time>2016-07-09T22:05:39Z</time></trkpt><trkpt lat="40.009235" lon="-6.735027"><ele>262.0</ele><time>2016-07-09T22:06:19Z</time></trkpt><trkpt lat="40.009234" lon="-6.734984"><ele>262.0</ele><time>2016-07-09T22:06:59Z</time></trkpt><trkpt lat="40.009186" lon="-6.734552"><ele>262.0</ele><time>2016-07-09T22:07:39Z</time></trkpt><trkpt lat="40.009185" lon="-6.734520"><ele>262.0</ele><time>2016-07-09T22:08:19Z</time></trkpt><trkpt lat="40.009192" lon="-6.734381"><ele>262.0</ele><time>2016-07-09T22:08:59Z</time></trkpt><trkpt lat="40.009159" lon="-6.733701"><ele>262.0</ele><time>2016-07-09T22:09:39Z</time></trkpt><trkpt lat="40.009091" lon="-6.732705"><ele>261.0</ele><time>2016-07-09T22:10:19Z</time></trkpt><trkpt lat="40.009086" lon="-6.732574"><ele>260.0</ele><time>2016-07-09T22:10:59Z</time></trkpt><trkpt lat="40.009075" lon="-6.732445"><ele>260.0</ele><time>2016-07-09T22:11:39Z</time></trkpt><trkpt lat="40.009017" lon="-6.731452"><ele>262.0</ele><time>2016-07-09T22:12:19Z</time></trkpt><trkpt lat="40.008900" lon="-6.730528"><ele>262.0</ele><time>2016-07-09T22:12:59Z</time></trkpt><trkpt lat="40.008698" lon="-6.729424"><ele>262.0</ele><time>2016-07-09T22:13:39Z</time></trkpt><trkpt lat="40.008635" lon="-6.729095"><ele>262.0</ele><time>2016-07-09T22:14:19Z</time></trkpt><trkpt lat="40.008617" lon="-6.729017"><ele>262.0</ele><time>2016-07-09T22:14:59Z</time></trkpt><trkpt lat="40.008566" lon="-6.728721"><ele>261.0</ele><time>2016-07-09T22:15:39Z</time></trkpt><trkpt lat="40.008536" lon="-6.728539"><ele>261.0</ele><time>2016-07-09T22:16:19Z</time></trkpt><trkpt lat="40.008522" lon="-6.728481"><ele>261.0</ele><time>2016-07-09T22:16:59Z</time></trkpt><trkpt lat="40.008515" lon="-6.728408"><ele>261.0</ele><time>2016-07-09T22:17:39Z</time></trkpt><trkpt lat="40.008505" lon="-6.728341"><ele>261.0</ele><time>2016-07-09T22:18:19Z</time></trkpt><trkpt lat="40.008494" lon="-6.728280"><ele>261.0</ele><time>2016-07-09T22:18:59Z</time></trkpt><trkpt lat="40.008374" lon="-6.727631"><ele>263.0</ele><time>2016-07-09T22:19:39Z</time></trkpt><trkpt lat="40.008361" lon="-6.727512"><ele>263.0</ele><time>2016-07-09T22:20:19Z</time></trkpt><trkpt lat="40.008357" lon="-6.727449"><ele>263.0</ele><time>2016-07-09T22:20:59Z</time></trkpt><trkpt lat="40.008352" lon="-6.727388"><ele>263.0</ele><time>2016-07-09T22:21:39Z</time></trkpt><trkpt lat="40.008347" lon="-6.727329"><ele>263.0</ele><time>2016-07-09T22:22:19Z</time></trkpt><trkpt lat="40.008342" lon="-6.727271"><ele>263.0</ele><time>2016-07-09T22:22:59Z</time></trkpt><trkpt lat="40.008339" lon="-6.727215"><ele>263.0</ele><time>2016-07-09T22:23:39Z</time></trkpt><trkpt lat="40.008366" lon="-6.726611"><ele>265.0</ele><time>2016-07-09T22:24:19Z</time></trkpt><trkpt lat="40.008597" lon="-6.725645"><ele>267.0</ele><time>2016-07-09T22:24:59Z</time></trkpt><trkpt lat="40.008568" lon="-6.725411"><ele>267.0</ele><time>2016-07-09T22:25:39Z</time></trkpt><trkpt lat="40.008518" lon="-6.724782"><ele>267.0</ele><time>2016-07-09T22:26:19Z</time></trkpt><trkpt lat="40.008460" lon="-6.724021"><ele>265.0</ele><time>2016-07-09T22:26:59Z</time></trkpt><trkpt lat="40.008404" lon="-6.723347"><ele>265.0</ele><time>2016-07-09T22:27:39Z</time></trkpt><trkpt lat="40.008380" lon="-6.722752"><ele>266.0</ele><time>2016-07-09T22:28:19Z</time></trkpt><trkpt lat="40.008357" lon="-6.722446"><ele>266.0</ele><time>2016-07-09T22:28:59Z</time></trkpt><trkpt lat="40.008299" lon="-6.722160"><ele>265.0</ele><time>2016-07-09T22:29:39Z</time></trkpt><trkpt lat="40.008293" lon="-6.722111"><ele>265.0</ele><time>2016-07-09T22:30:19Z</time></trkpt><trkpt lat="40.008294" lon="-6.722080"><ele>265.0</ele><time>2016-07-09T22:30:59Z</time></trkpt><trkpt lat="40.008294" lon="-6.722061"><ele>265.0</ele><time>2016-07-09T22:31:39Z</time></trkpt><trkpt lat="40.008284" lon="-6.721961"><ele>265.0</ele><time>2016-07-09T22:32:19Z</time></trkpt><trkpt lat="40.008285" lon="-6.721949"><ele>265.0</ele><time>2016-07-09T22:32:59Z</time></trkpt><trkpt lat="40.008273" lon="-6.721828"><ele>265.0</ele><time>2016-07-09T22:33:39Z</time></trkpt><trkpt lat="40.008262" lon="-6.721709"><ele>265.0</ele><time>2016-07-09T22:34:19Z</time></trkpt><trkpt lat="40.008257" lon="-6.721631"><ele>265.0</ele><time>2016-07-09T22:34:59Z</time></trkpt><trkpt lat="40.008232" lon="-6.721442"><ele>265.0</ele><time>2016-07-09T22:35:39Z</time></trkpt><trkpt lat="40.008233" lon="-6.721426"><ele>265.0</ele><time>2016-07-09T22:36:19Z</time></trkpt><trkpt lat="40.008234" lon="-6.721410"><ele>265.0</ele><time>2016-07-09T22:36:59Z</time></trkpt><trkpt lat="40.008235" lon="-6.721394"><ele>265.0</ele><time>2016-07-09T22:37:39Z</time></trkpt><trkpt lat="40.008235" lon="-6.721379"><ele>265.0</ele><time>2016-07-09T22:38:19Z</time></trkpt><trkpt lat="40.008226" lon="-6.721203"><ele>265.0</ele><time>2016-07-09T22:38:59Z</time></trkpt><trkpt lat="40.008227" lon="-6.721013"><ele>265.0</ele><time>2016-07-09T22:39:39Z</time></trkpt><trkpt lat="40.008228" lon="-6.720972"><ele>266.0</ele><time>2016-07-09T22:40:19Z</time></trkpt><trkpt lat="40.008215" lon="-6.720855"><ele>266.0</ele><time>2016-07-09T22:40:59Z</time></trkpt><trkpt lat="40.008210" lon="-6.720840"><ele>266.0</ele><time>2016-07-09T22:41:39Z</time></trkpt><trkpt lat="40.008208" lon="-6.720824"><ele>266.0</ele><time>2016-07-09T22:42:19Z</time></trkpt><trkpt lat="40.008185" lon="-6.720570"><ele>265.0</ele><time>2016-07-09T22:42:59Z</time></trkpt><trkpt lat="40.008134" lon="-6.720446"><ele>265.0</ele><time>2016-07-09T22:43:39Z</time></trkpt><trkpt lat="40.008125" lon="-6.720433"><ele>265.0</ele><time>2016-07-09T22:44:19Z</time></trkpt><trkpt lat="40.008127" lon="-6.720431"><ele>265.0</ele><time>2016-07-09T22:44:59Z</time></trkpt><trkpt lat="40.008188" lon="-6.720571"><ele>265.0</ele><time>2016-07-09T22:45:39Z</time></trkpt><trkpt lat="40.008226" lon="-6.720890"><ele>266.0</ele><time>2016-07-09T22:46:19Z</time></trkpt><trkpt lat="40.008240" lon="-6.721443"><ele>265.0</ele><time>2016-07-09T22:46:59Z</time></trkpt><trkpt lat="40.008256" lon="-6.721727"><ele>265.0</ele><time>2016-07-09T22:47:39Z</time></trkpt><trkpt lat="40.008296" lon="-6.722123"><ele>265.0</ele><time>2016-07-09T22:48:19Z</time></trkpt><trkpt lat="40.008301" lon="-6.722143"><ele>265.0</ele><time>2016-07-09T22:48:59Z</time></trkpt><trkpt lat="40.008305" lon="-6.722171"><ele>265.0</ele><time>2016-07-09T22:49:39Z</time></trkpt><trkpt lat="40.008317" lon="-6.722227"><ele>265.0</ele><time>2016-07-09T22:50:19Z</time></trkpt><trkpt lat="40.008355" lon="-6.722419"><ele>266.0</ele><time>2016-07-09T22:50:59Z</time></trkpt><trkpt lat="40.008380" lon="-6.722675"><ele>266.0</ele><time>2016-07-09T22:51:39Z</time></trkpt><trkpt lat="40.008395" lon="-6.723235"><ele>265.0</ele><time>2016-07-09T22:52:19Z</time></trkpt><trkpt lat="40.008443" lon="-6.723749"><ele>265.0</ele><time>2016-07-09T22:52:59Z</time></trkpt><trkpt lat="40.008495" lon="-6.724505"><ele>266.0</ele><time>2016-07-09T22:53:39Z</time></trkpt><trkpt lat="40.008539" lon="-6.725080"><ele>267.0</ele><time>2016-07-09T22:54:19Z</time></trkpt><trkpt lat="40.008592" lon="-6.725640"><ele>267.0</ele><time>2016-07-09T22:54:59Z</time></trkpt><trkpt lat="40.008480" lon="-6.726194"><ele>265.0</ele><time>2016-07-09T22:55:39Z</time></trkpt><trkpt lat="40.008367" lon="-6.726614"><ele>265.0</ele><time>2016-07-09T22:56:19Z</time></trkpt><trkpt lat="40.008339" lon="-6.727221"><ele>263.0</ele><time>2016-07-09T22:56:59Z</time></trkpt><trkpt lat="40.008382" lon="-6.727656"><ele>262.0</ele><time>2016-07-09T22:57:39Z</time></trkpt><trkpt lat="40.008515" lon="-6.728412"><ele>261.0</ele><time>2016-07-09T22:58:19Z</time></trkpt><trkpt lat="40.008652" lon="-6.729188"><ele>262.0</ele><time>2016-07-09T22:58:59Z</time></trkpt><trkpt lat="40.008773" lon="-6.729834"><ele>262.0</ele><time>2016-07-09T22:59:39Z</time></trkpt><trkpt lat="40.008954" lon="-6.730949"><ele>262.0</ele><time>2016-07-09T23:00:19Z</time></trkpt><trkpt lat="40.009023" lon="-6.731461"><ele>262.0</ele><time>2016-07-09T23:00:59Z</time></trkpt><trkpt lat="40.009084" lon="-6.732564"><ele>260.0</ele><time>2016-07-09T23:01:39Z</time></trkpt><trkpt lat="40.009149" lon="-6.733465"><ele>261.0</ele><time>2016-07-09T23:02:19Z</time></trkpt><trkpt lat="40.009186" lon="-6.734540"><ele>262.0</ele><time>2016-07-09T23:02:59Z</time></trkpt><trkpt lat="40.009260" lon="-6.735259"><ele>261.0</ele><time>2016-07-09T23:03:39Z</time></trkpt><trkpt lat="40.009244" lon="-6.735771"><ele>261.0</ele><time>2016-07-09T23:04:19Z</time></trkpt><trkpt lat="40.009378" lon="-6.736280"><ele>261.0</ele><time>2016-07-09T23:04:59Z</time></trkpt><trkpt lat="40.009644" lon="-6.736861"><ele>262.0</ele><time>2016-07-09T23:05:39Z</time></trkpt><trkpt lat="40.009700" lon="-6.736824"><ele>262.0</ele><time>2016-07-09T23:06:19Z</time></trkpt><trkpt lat="40.009727" lon="-6.736800"><ele>262.0</ele><time>2016-07-09T23:06:59Z</time></trkpt><trkpt lat="40.010220" lon="-6.736470"><ele>261.0</ele><time>2016-07-09T23:07:39Z</time></trkpt><trkpt lat="40.010285" lon="-6.736404"><ele>261.0</ele><time>2016-07-09T23:08:19Z</time></trkpt><trkpt lat="40.010691" lon="-6.736040"><ele>261.0</ele><time>2016-07-09T23:08:59Z</time></trkpt><trkpt lat="40.010940" lon="-6.735734"><ele>260.0</ele><time>2016-07-09T23:09:39Z</time></trkpt><trkpt lat="40.011125" lon="-6.735565"><ele>260.0</ele><time>2016-07-09T23:10:19Z</time></trkpt><trkpt lat="40.011548" lon="-6.735211"><ele>261.0</ele><time>2016-07-09T23:10:59Z</time></trkpt><trkpt lat="40.011933" lon="-6.735096"><ele>261.0</ele><time>2016-07-09T23:11:39Z</time></trkpt><trkpt lat="40.012037" lon="-6.735071"><ele>261.0</ele><time>2016-07-09T23:12:19Z</time></trkpt><trkpt lat="40.012080" lon="-6.735062"><ele>261.0</ele><time>2016-07-09T23:12:59Z</time></trkpt><trkpt lat="40.012450" lon="-6.734964"><ele>262.0</ele><time>2016-07-09T23:13:39Z</time></trkpt><trkpt lat="40.012537" lon="-6.734937"><ele>262.0</ele><time>2016-07-09T23:14:19Z</time></trkpt><trkpt lat="40.012669" lon="-6.734919"><ele>263.0</ele><time>2016-07-09T23:14:59Z</time></trkpt><trkpt lat="40.012761" lon="-6.734916"><ele>263.0</ele><time>2016-07-09T23:15:39Z</time></trkpt><trkpt lat="40.012807" lon="-6.734899"><ele>263.0</ele><time>2016-07-09T23:16:19Z</time></trkpt><trkpt lat="40.012852" lon="-6.734878"><ele>263.0</ele><time>2016-07-09T23:16:59Z</time></trkpt><trkpt lat="40.012896" lon="-6.734863"><ele>263.0</ele><time>2016-07-09T23:17:39Z</time></trkpt><trkpt lat="40.012942" lon="-6.734857"><ele>263.0</ele><time>2016-07-09T23:18:19Z</time></trkpt><trkpt lat="40.012987" lon="-6.734852"><ele>263.0</ele><time>2016-07-09T23:18:59Z</time></trkpt><trkpt lat="40.013034" lon="-6.734842"><ele>263.0</ele><time>2016-07-09T23:19:39Z</time></trkpt><trkpt lat="40.013080" lon="-6.734830"><ele>263.0</ele><time>2016-07-09T23:20:19Z</time></trkpt><trkpt lat="40.013126" lon="-6.734823"><ele>263.0</ele><time>2016-07-09T23:20:59Z</time></trkpt><trkpt lat="40.013173" lon="-6.734821"><ele>263.0</ele><time>2016-07-09T23:21:39Z</time></trkpt><trkpt lat="40.013363" lon="-6.734807"><ele>262.0</ele><time>2016-07-09T23:22:19Z</time></trkpt><trkpt lat="40.013432" lon="-6.734801"><ele>262.0</ele><time>2016-07-09T23:22:59Z</time></trkpt><trkpt lat="40.013679" lon="-6.734793"><ele>261.0</ele><time>2016-07-09T23:23:39Z</time></trkpt><trkpt lat="40.013928" lon="-6.734667"><ele>259.0</ele><time>2016-07-09T23:24:19Z</time></trkpt><trkpt lat="40.014155" lon="-6.734448"><ele>258.0</ele><time>2016-07-09T23:24:59Z</time></trkpt><trkpt lat="40.014176" lon="-6.734403"><ele>258.0</ele><time>2016-07-09T23:25:39Z</time></trkpt><trkpt lat="40.014232" lon="-6.734295"><ele>258.0</ele><time>2016-07-09T23:26:19Z</time></trkpt><trkpt lat="40.014315" lon="-6.734134"><ele>256.0</ele><time>2016-07-09T23:26:59Z</time></trkpt><trkpt lat="40.014503" lon="-6.733867"><ele>257.0</ele><time>2016-07-09T23:27:39Z</time></trkpt><trkpt lat="40.014546" lon="-6.733828"><ele>257.0</ele><time>2016-07-09T23:28:19Z</time></trkpt><trkpt lat="40.014607" lon="-6.733755"><ele>255.0</ele><time>2016-07-09T23:28:59Z</time></trkpt><trkpt lat="40.014739" lon="-6.733616"><ele>256.0</ele><time>2016-07-09T23:29:39Z</time></trkpt><trkpt lat="40.014821" lon="-6.733598"><ele>256.0</ele><time>2016-07-09T23:30:19Z</time></trkpt><trkpt lat="40.014915" lon="-6.733567"><ele>254.0</ele><time>2016-07-09T23:30:59Z</time></trkpt><trkpt lat="40.015085" lon="-6.733557"><ele>254.0</ele><time>2016-07-09T23:31:39Z</time></trkpt><trkpt lat="40.015245" lon="-6.733440"><ele>255.0</ele><time>2016-07-09T23:32:19Z</time></trkpt><trkpt lat="40.015441" lon="-6.733253"><ele>255.0</ele><time>2016-07-09T23:32:59Z</time></trkpt><trkpt lat="40.015689" lon="-6.733002"><ele>255.0</ele><time>2016-07-09T23:33:39Z</time></trkpt><trkpt lat="40.016174" lon="-6.732610"><ele>257.0</ele><time>2016-07-09T23:34:19Z</time></trkpt><trkpt lat="40.016524" lon="-6.732274"><ele>258.0</ele><time>2016-07-09T23:34:59Z</time></trkpt><trkpt lat="40.016813" lon="-6.732001"><ele>259.0</ele><time>2016-07-09T23:35:39Z</time></trkpt><trkpt lat="40.017278" lon="-6.731684"><ele>260.0</ele><time>2016-07-09T23:36:19Z</time></trkpt><trkpt lat="40.017652" lon="-6.731484"><ele>260.0</ele><time>2016-07-09T23:36:59Z</time></trkpt><trkpt lat="40.018069" lon="-6.731155"><ele>260.0</ele><time>2016-07-09T23:37:39Z</time></trkpt><trkpt lat="40.018501" lon="-6.730778"><ele>261.0</ele><time>2016-07-09T23:38:19Z</time></trkpt><trkpt lat="40.018689" lon="-6.730645"><ele>260.0</ele><time>2016-07-09T23:38:59Z</time></trkpt><trkpt lat="40.019094" lon="-6.730358"><ele>260.0</ele><time>2016-07-09T23:39:39Z</time></trkpt><trkpt lat="40.019269" lon="-6.729915"><ele>260.0</ele><time>2016-07-09T23:40:19Z</time></trkpt><trkpt lat="40.019597" lon="-6.729777"><ele>261.0</ele><time>2016-07-09T23:40:59Z</time></trkpt><trkpt lat="40.019916" lon="-6.729506"><ele>261.0</ele><time>2016-07-09T23:41:39Z</time></trkpt><trkpt lat="40.020293" lon="-6.729157"><ele>261.0</ele><time>2016-07-09T23:42:19Z</time></trkpt><trkpt lat="40.020873" lon="-6.728388"><ele>262.0</ele><time>2016-07-09T23:42:59Z</time></trkpt><trkpt lat="40.021164" lon="-6.728079"><ele>263.0</ele><time>2016-07-09T23:43:39Z</time></trkpt><trkpt lat="40.021749" lon="-6.727624"><ele>265.0</ele><time>2016-07-09T23:44:19Z</time></trkpt><trkpt lat="40.022152" lon="-6.727357"><ele>267.0</ele><time>2016-07-09T23:44:59Z</time></trkpt><trkpt lat="40.022183" lon="-6.727322"><ele>267.0</ele><time>2016-07-09T23:45:39Z</time></trkpt><trkpt lat="40.022350" lon="-6.727140"><ele>267.0</ele><time>2016-07-09T23:46:19Z</time></trkpt><trkpt lat="40.022386" lon="-6.727106"><ele>268.0</ele><time>2016-07-09T23:46:59Z</time></trkpt><trkpt lat="40.022418" lon="-6.727064"><ele>268.0</ele><time>2016-07-09T23:47:39Z</time></trkpt><trkpt lat="40.022539" lon="-6.726908"><ele>268.0</ele><time>2016-07-09T23:48:19Z</time></trkpt><trkpt lat="40.022640" lon="-6.726809"><ele>269.0</ele><time>2016-07-09T23:48:59Z</time></trkpt><trkpt lat="40.022666" lon="-6.726769"><ele>269.0</ele><time>2016-07-09T23:49:39Z</time></trkpt><trkpt lat="40.022689" lon="-6.726730"><ele>269.0</ele><time>2016-07-09T23:50:19Z</time></trkpt><trkpt lat="40.022717" lon="-6.726702"><ele>269.0</ele><time>2016-07-09T23:50:59Z</time></trkpt><trkpt lat="40.022746" lon="-6.726676"><ele>269.0</ele><time>2016-07-09T23:51:39Z</time></trkpt><trkpt lat="40.022767" lon="-6.726646"><ele>269.0</ele><time>2016-07-09T23:52:19Z</time></trkpt><trkpt lat="40.022782" lon="-6.726615"><ele>269.0</ele><time>2016-07-09T23:52:59Z</time></trkpt><trkpt lat="40.022794" lon="-6.726580"><ele>269.0</ele><time>2016-07-09T23:53:39Z</time></trkpt><trkpt lat="40.022980" lon="-6.726300"><ele>270.0</ele><time>2016-07-09T23:54:19Z</time></trkpt><trkpt lat="40.023292" lon="-6.725795"><ele>269.0</ele><time>2016-07-09T23:54:59Z</time></trkpt><trkpt lat="40.023465" lon="-6.725489"><ele>268.0</ele><time>2016-07-09T23:55:39Z</time></trkpt><trkpt lat="40.023705" lon="-6.724880"><ele>263.0</ele><time>2016-07-09T23:56:19Z</time></trkpt><trkpt lat="40.023885" lon="-6.724515"><ele>258.0</ele><time>2016-07-09T23:56:59Z</time></trkpt><trkpt lat="40.024364" lon="-6.723801"><ele>254.0</ele><time>2016-07-09T23:57:39Z</time></trkpt><trkpt lat="40.024632" lon="-6.723385"><ele>251.0</ele><time>2016-07-09T23:58:19Z</time></trkpt><trkpt lat="40.024750" lon="-6.723274"><ele>251.0</ele><time>2016-07-09T23:58:59Z</time></trkpt><trkpt lat="40.025056" lon="-6.723008"><ele>249.0</ele><time>2016-07-09T23:59:39Z</time></trkpt><trkpt lat="40.025400" lon="-6.722718"><ele>248.0</ele><time>2016-07-10T00:00:19Z</time></trkpt><trkpt lat="40.025782" lon="-6.722511"><ele>247.0</ele><time>2016-07-10T00:00:59Z</time></trkpt><trkpt lat="40.025888" lon="-6.722451"><ele>247.0</ele><time>2016-07-10T00:01:39Z</time></trkpt><trkpt lat="40.026502" lon="-6.722048"><ele>245.0</ele><time>2016-07-10T00:02:19Z</time></trkpt><trkpt lat="40.026793" lon="-6.721891"><ele>245.0</ele><time>2016-07-10T00:02:59Z</time></trkpt><trkpt lat="40.027019" lon="-6.721681"><ele>246.0</ele><time>2016-07-10T00:03:39Z</time></trkpt><trkpt lat="40.027157" lon="-6.721646"><ele>247.0</ele><time>2016-07-10T00:04:19Z</time></trkpt><trkpt lat="40.027429" lon="-6.721411"><ele>247.0</ele><time>2016-07-10T00:04:59Z</time></trkpt><trkpt lat="40.027687" lon="-6.721221"><ele>246.0</ele><time>2016-07-10T00:05:39Z</time></trkpt><trkpt lat="40.028129" lon="-6.721004"><ele>246.0</ele><time>2016-07-10T00:06:19Z</time></trkpt><trkpt lat="40.028526" lon="-6.720885"><ele>247.0</ele><time>2016-07-10T00:06:59Z</time></trkpt><trkpt lat="40.028593" lon="-6.720865"><ele>247.0</ele><time>2016-07-10T00:07:39Z</time></trkpt><trkpt lat="40.028861" lon="-6.720779"><ele>248.0</ele><time>2016-07-10T00:08:19Z</time></trkpt><trkpt lat="40.029015" lon="-6.720609"><ele>246.0</ele><time>2016-07-10T00:08:59Z</time></trkpt><trkpt lat="40.029126" lon="-6.720498"><ele>247.0</ele><time>2016-07-10T00:09:39Z</time></trkpt><trkpt lat="40.029211" lon="-6.720432"><ele>247.0</ele><time>2016-07-10T00:10:19Z</time></trkpt><trkpt lat="40.029561" lon="-6.720308"><ele>245.0</ele><time>2016-07-10T00:10:59Z</time></trkpt><trkpt lat="40.029636" lon="-6.720226"><ele>246.0</ele><time>2016-07-10T00:11:39Z</time></trkpt><trkpt lat="40.029832" lon="-6.720069"><ele>244.0</ele><time>2016-07-10T00:12:19Z</time></trkpt><trkpt lat="40.030113" lon="-6.719915"><ele>244.0</ele><time>2016-07-10T00:12:59Z</time></trkpt><trkpt lat="40.030503" lon="-6.719825"><ele>244.0</ele><time>2016-07-10T00:13:39Z</time></trkpt><trkpt lat="40.030915" lon="-6.719640"><ele>245.0</ele><time>2016-07-10T00:14:19Z</time></trkpt><trkpt lat="40.031301" lon="-6.719540"><ele>246.0</ele><time>2016-07-10T00:14:59Z</time></trkpt><trkpt lat="40.031459" lon="-6.719506"><ele>246.0</ele><time>2016-07-10T00:15:39Z</time></trkpt><trkpt lat="40.031542" lon="-6.719449"><ele>248.0</ele><time>2016-07-10T00:16:19Z</time></trkpt><trkpt lat="40.031660" lon="-6.719332"><ele>248.0</ele><time>2016-07-10T00:16:59Z</time></trkpt><trkpt lat="40.031926" lon="-6.719064"><ele>249.0</ele><time>2016-07-10T00:17:39Z</time></trkpt><trkpt lat="40.032370" lon="-6.718661"><ele>247.0</ele><time>2016-07-10T00:18:19Z</time></trkpt><trkpt lat="40.032876" lon="-6.718212"><ele>245.0</ele><time>2016-07-10T00:18:59Z</time></trkpt><trkpt lat="40.032924" lon="-6.718201"><ele>245.0</ele><time>2016-07-10T00:19:39Z</time></trkpt><trkpt lat="40.032970" lon="-6.718201"><ele>245.0</ele><time>2016-07-10T00:20:19Z</time></trkpt><trkpt lat="40.033016" lon="-6.718217"><ele>245.0</ele><time>2016-07-10T00:20:59Z</time></trkpt><trkpt lat="40.033059" lon="-6.718235"><ele>245.0</ele><time>2016-07-10T00:21:39Z</time></trkpt><trkpt lat="40.033408" lon="-6.718383"><ele>246.0</ele><time>2016-07-10T00:22:19Z</time></trkpt><trkpt lat="40.033789" lon="-6.718436"><ele>249.0</ele><time>2016-07-10T00:22:59Z</time></trkpt><trkpt lat="40.033802" lon="-6.718406"><ele>249.0</ele><time>2016-07-10T00:23:39Z</time></trkpt><trkpt lat="40.033809" lon="-6.718363"><ele>249.0</ele><time>2016-07-10T00:24:19Z</time></trkpt><trkpt lat="40.033811" lon="-6.718247"><ele>249.0</ele><time>2016-07-10T00:24:59Z</time></trkpt><trkpt lat="40.033805" lon="-6.718184"><ele>249.0</ele><time>2016-07-10T00:25:39Z</time></trkpt><trkpt lat="40.033792" lon="-6.718120"><ele>249.0</ele><time>2016-07-10T00:26:19Z</time></trkpt><trkpt lat="40.033770" lon="-6.718055"><ele>249.0</ele><time>2016-07-10T00:26:59Z</time></trkpt><trkpt lat="40.033745" lon="-6.717988"><ele>248.0</ele><time>2016-07-10T00:27:39Z</time></trkpt><trkpt lat="40.033725" lon="-6.717923"><ele>248.0</ele><time>2016-07-10T00:28:19Z</time></trkpt><trkpt lat="40.033703" lon="-6.717865"><ele>248.0</ele><time>2016-07-10T00:28:59Z</time></trkpt><trkpt lat="40.033679" lon="-6.717816"><ele>248.0</ele><time>2016-07-10T00:29:39Z</time></trkpt><trkpt lat="40.033654" lon="-6.717744"><ele>248.0</ele><time>2016-07-10T00:30:19Z</time></trkpt><trkpt lat="40.033709" lon="-6.717640"><ele>248.0</ele><time>2016-07-10T00:30:59Z</time></trkpt><trkpt lat="40.033848" lon="-6.717539"><ele>250.0</ele><time>2016-07-10T00:31:39Z</time></trkpt><trkpt lat="40.034138" lon="-6.717392"><ele>251.0</ele><time>2016-07-10T00:32:19Z</time></trkpt><trkpt lat="40.034219" lon="-6.717442"><ele>251.0</ele><time>2016-07-10T00:32:59Z</time></trkpt><trkpt lat="40.034219" lon="-6.717453"><ele>251.0</ele><time>2016-07-10T00:33:39Z</time></trkpt><trkpt lat="40.034222" lon="-6.717490"><ele>251.0</ele><time>2016-07-10T00:34:19Z</time></trkpt><trkpt lat="40.034224" lon="-6.717510"><ele>251.0</ele><time>2016-07-10T00:34:59Z</time></trkpt><trkpt lat="40.034219" lon="-6.717611"><ele>251.0</ele><time>2016-07-10T00:35:39Z</time></trkpt><trkpt lat="40.034244" lon="-6.717692"><ele>251.0</ele><time>2016-07-10T00:36:19Z</time></trkpt><trkpt lat="40.034423" lon="-6.717793"><ele>251.0</ele><time>2016-07-10T00:36:59Z</time></trkpt><trkpt lat="40.034447" lon="-6.717833"><ele>251.0</ele><time>2016-07-10T00:37:39Z</time></trkpt><trkpt lat="40.034476" lon="-6.717867"><ele>251.0</ele><time>2016-07-10T00:38:19Z</time></trkpt><trkpt lat="40.034684" lon="-6.717570"><ele>251.0</ele><time>2016-07-10T00:38:59Z</time></trkpt><trkpt lat="40.034929" lon="-6.717350"><ele>251.0</ele><time>2016-07-10T00:39:39Z</time></trkpt><trkpt lat="40.035224" lon="-6.717330"><ele>251.0</ele><time>2016-07-10T00:40:19Z</time></trkpt><trkpt lat="40.035265" lon="-6.717335"><ele>251.0</ele><time>2016-07-10T00:40:59Z</time></trkpt><trkpt lat="40.035304" lon="-6.717335"><ele>251.0</ele><time>2016-07-10T00:41:39Z</time></trkpt><trkpt lat="40.035344" lon="-6.717334"><ele>251.0</ele><time>2016-07-10T00:42:19Z</time></trkpt><trkpt lat="40.035384" lon="-6.717328"><ele>251.0</ele><time>2016-07-10T00:42:59Z</time></trkpt><trkpt lat="40.035424" lon="-6.717319"><ele>251.0</ele><time>2016-07-10T00:43:39Z</time></trkpt><trkpt lat="40.035466" lon="-6.717312"><ele>251.0</ele><time>2016-07-10T00:44:19Z</time></trkpt><trkpt lat="40.035798" lon="-6.717238"><ele>251.0</ele><time>2016-07-10T00:44:59Z</time></trkpt><trkpt lat="40.035841" lon="-6.717220"><ele>251.0</ele><time>2016-07-10T00:45:39Z</time></trkpt><trkpt lat="40.035888" lon="-6.717202"><ele>251.0</ele><time>2016-07-10T00:46:19Z</time></trkpt><trkpt lat="40.036294" lon="-6.717089"><ele>252.0</ele><time>2016-07-10T00:46:59Z</time></trkpt><trkpt lat="40.036738" lon="-6.716912"><ele>252.0</ele><time>2016-07-10T00:47:39Z</time></trkpt><trkpt lat="40.036784" lon="-6.716895"><ele>252.0</ele><time>2016-07-10T00:48:19Z</time></trkpt><trkpt lat="40.036906" lon="-6.716838"><ele>252.0</ele><time>2016-07-10T00:48:59Z</time></trkpt><trkpt lat="40.037084" lon="-6.716751"><ele>252.0</ele><time>2016-07-10T00:49:39Z</time></trkpt><trkpt lat="40.037205" lon="-6.716692"><ele>252.0</ele><time>2016-07-10T00:50:19Z</time></trkpt><trkpt lat="40.037639" lon="-6.716387"><ele>252.0</ele><time>2016-07-10T00:50:59Z</time></trkpt><trkpt lat="40.037870" lon="-6.716320"><ele>252.0</ele><time>2016-07-10T00:51:39Z</time></trkpt><trkpt lat="40.037903" lon="-6.716314"><ele>252.0</ele><time>2016-07-10T00:52:19Z</time></trkpt><trkpt lat="40.038091" lon="-6.716225"><ele>252.0</ele><time>2016-07-10T00:52:59Z</time></trkpt><trkpt lat="40.038122" lon="-6.716212"><ele>252.0</ele><time>2016-07-10T00:53:39Z</time></trkpt><trkpt lat="40.038556" lon="-6.715893"><ele>253.0</ele><time>2016-07-10T00:54:19Z</time></trkpt><trkpt lat="40.038745" lon="-6.715720"><ele>253.0</ele><time>2016-07-10T00:54:59Z</time></trkpt><trkpt lat="40.039042" lon="-6.715475"><ele>253.0</ele><time>2016-07-10T00:55:39Z</time></trkpt><trkpt lat="40.039080" lon="-6.715450"><ele>253.0</ele><time>2016-07-10T00:56:19Z</time></trkpt><trkpt lat="40.039584" lon="-6.715095"><ele>254.0</ele><time>2016-07-10T00:56:59Z</time></trkpt><trkpt lat="40.039624" lon="-6.715080"><ele>254.0</ele><time>2016-07-10T00:57:39Z</time></trkpt><trkpt lat="40.039711" lon="-6.715050"><ele>254.0</ele><time>2016-07-10T00:58:19Z</time></trkpt><trkpt lat="40.039752" lon="-6.715029"><ele>254.0</ele><time>2016-07-10T00:58:59Z</time></trkpt><trkpt lat="40.039790" lon="-6.715006"><ele>254.0</ele><time>2016-07-10T00:59:39Z</time></trkpt><trkpt lat="40.039824" lon="-6.714988"><ele>254.0</ele><time>2016-07-10T01:00:19Z</time></trkpt><trkpt lat="40.039857" lon="-6.714975"><ele>254.0</ele><time>2016-07-10T01:00:59Z</time></trkpt><trkpt lat="40.040112" lon="-6.714822"><ele>254.0</ele><time>2016-07-10T01:01:39Z</time></trkpt><trkpt lat="40.040156" lon="-6.714786"><ele>255.0</ele><time>2016-07-10T01:02:19Z</time></trkpt><trkpt lat="40.040469" lon="-6.714573"><ele>255.0</ele><time>2016-07-10T01:02:59Z</time></trkpt><trkpt lat="40.040542" lon="-6.714520"><ele>255.0</ele><time>2016-07-10T01:03:39Z</time></trkpt><trkpt lat="40.040593" lon="-6.714475"><ele>255.0</ele><time>2016-07-10T01:04:19Z</time></trkpt><trkpt lat="40.040630" lon="-6.714447"><ele>255.0</ele><time>2016-07-10T01:04:59Z</time></trkpt><trkpt lat="40.040729" lon="-6.714402"><ele>254.0</ele><time>2016-07-10T01:05:39Z</time></trkpt><trkpt lat="40.040765" lon="-6.714377"><ele>254.0</ele><time>2016-07-10T01:06:19Z</time></trkpt><trkpt lat="40.040935" lon="-6.714314"><ele>254.0</ele><time>2016-07-10T01:06:59Z</time></trkpt><trkpt lat="40.040973" lon="-6.714293"><ele>253.0</ele><time>2016-07-10T01:07:39Z</time></trkpt><trkpt lat="40.041287" lon="-6.714103"><ele>253.0</ele><time>2016-07-10T01:08:19Z</time></trkpt><trkpt lat="40.041343" lon="-6.714067"><ele>253.0</ele><time>2016-07-10T01:08:59Z</time></trkpt><trkpt lat="40.041361" lon="-6.714068"><ele>253.0</ele><time>2016-07-10T01:09:39Z</time></trkpt><trkpt lat="40.041384" lon="-6.714074"><ele>253.0</ele><time>2016-07-10T01:10:19Z</time></trkpt><trkpt lat="40.041406" lon="-6.714093"><ele>253.0</ele><time>2016-07-10T01:10:59Z</time></trkpt><trkpt lat="40.041448" lon="-6.714066"><ele>253.0</ele><time>2016-07-10T01:11:39Z</time></trkpt><trkpt lat="40.041462" lon="-6.713933"><ele>253.0</ele><time>2016-07-10T01:12:19Z</time></trkpt><trkpt lat="40.041573" lon="-6.713853"><ele>253.0</ele><time>2016-07-10T01:12:59Z</time></trkpt><trkpt lat="40.041661" lon="-6.713818"><ele>253.0</ele><time>2016-07-10T01:13:39Z</time></trkpt><trkpt lat="40.041766" lon="-6.713796"><ele>253.0</ele><time>2016-07-10T01:14:19Z</time></trkpt><trkpt lat="40.041807" lon="-6.713780"><ele>254.0</ele><time>2016-07-10T01:14:59Z</time></trkpt><trkpt lat="40.041801" lon="-6.713738"><ele>253.0</ele><time>2016-07-10T01:15:39Z</time></trkpt><trkpt lat="40.041911" lon="-6.713690"><ele>254.0</ele><time>2016-07-10T01:16:19Z</time></trkpt><trkpt lat="40.041988" lon="-6.713705"><ele>254.0</ele><time>2016-07-10T01:16:59Z</time></trkpt><trkpt lat="40.042012" lon="-6.713694"><ele>254.0</ele><time>2016-07-10T01:17:39Z</time></trkpt><trkpt lat="40.042042" lon="-6.713641"><ele>254.0</ele><time>2016-07-10T01:18:19Z</time></trkpt><trkpt lat="40.042130" lon="-6.713528"><ele>254.0</ele><time>2016-07-10T01:18:59Z</time></trkpt></trkseg></trk></gpx>